Time;durP1;ratioP1;P1;durP2;ratioP2;P2;SDS_P1;SDS_P2;PMS_P1;PMS_P2;Temp;Humidity;BMP_temperature;BMP_pressure;BME280_temperature;BME280_humidity;BME280_pressure;Samples;Min_cycle;Max_cycle;Signal;HPM_P1;HPM_P2
2021/10/19 00:00:30;;;;;;;52.40;32.20;;;;;;;10.50;69.83;100016.71;236036;1197;138125;-60
2021/10/19 00:05:42;;;;;;;52.00;31.90;;;;;;;10.51;70.09;100011.91;235654;1197;138580;-59
2021/10/19 00:10:46;;;;;;;49.30;31.40;;;;;;;10.49;69.99;100017.86;235605;1197;138877;-62
2021/10/19 00:15:49;;;;;;;54.90;31.90;;;;;;;10.44;69.76;100021.27;235515;1198;138383;-61
2021/10/19 00:20:52;;;;;;;51.20;30.10;;;;;;;10.42;69.62;100020.96;235522;1199;139554;-61
2021/10/19 00:25:55;;;;;;;53.60;31.80;;;;;;;10.46;69.94;100023.30;235453;1198;139629;-61
2021/10/19 00:30:58;;;;;;;49.40;30.90;;;;;;;10.54;70.15;100023.48;235547;1198;139161;-61
2021/10/19 00:36:01;;;;;;;51.70;30.60;;;;;;;10.60;70.04;100018.39;235618;1198;139144;-62
2021/10/19 00:41:04;;;;;;;52.00;29.90;;;;;;;10.63;69.67;100017.18;236594;1195;138858;-60
2021/10/19 00:46:12;;;;;;;55.40;29.80;;;;;;;10.60;69.82;100019.95;236292;1194;139355;-59
2021/10/19 00:51:16;;;;;;;44.90;26.00;;;;;;;10.53;69.65;100018.89;235913;1196;138957;-59
2021/10/19 00:56:20;;;;;;;41.90;25.80;;;;;;;10.48;69.51;100018.95;236355;1195;139630;-59
2021/10/19 01:01:25;;;;;;;41.00;24.40;;;;;;;10.42;69.62;100021.15;235713;1195;139729;-58
2021/10/19 01:06:28;;;;;;;39.10;24.10;;;;;;;10.42;69.65;100018.52;236349;1193;138278;-63
2021/10/19 01:11:32;;;;;;;41.50;24.20;;;;;;;10.38;69.85;100019.19;236574;1195;138438;-63
2021/10/19 01:16:35;;;;;;;41.10;25.50;;;;;;;10.32;69.47;100011.35;236228;1195;139599;-63
2021/10/19 01:21:38;;;;;;;45.00;24.60;;;;;;;10.25;69.66;100006.31;236444;1195;138668;-61
2021/10/19 01:26:41;;;;;;;43.30;25.50;;;;;;;10.22;69.64;100001.30;236552;1195;139660;-63
2021/10/19 01:31:49;;;;;;;42.90;25.30;;;;;;;10.22;69.77;100000.41;236590;1193;139920;-60
2021/10/19 01:36:52;;;;;;;44.40;24.90;;;;;;;10.24;69.82;99994.45;236609;1193;138814;-59
2021/10/19 01:41:55;;;;;;;43.10;25.90;;;;;;;10.25;69.79;99986.45;236599;1193;137898;-62
2021/10/19 01:46:58;;;;;;;42.40;25.40;;;;;;;10.24;69.82;99980.27;236650;1194;137999;-62
2021/10/19 01:52:01;;;;;;;38.60;23.40;;;;;;;10.21;69.74;99975.64;236810;1193;137871;-62
2021/10/19 01:57:04;;;;;;;41.70;22.40;;;;;;;10.16;69.75;99972.43;236499;1193;138999;-62
2021/10/19 02:02:08;;;;;;;34.50;21.50;;;;;;;10.13;69.69;99968.33;236444;1187;139117;-61
2021/10/19 02:07:11;;;;;;;40.50;22.50;;;;;;;10.09;69.67;99967.11;236187;1193;141330;-62
2021/10/19 02:12:14;;;;;;;39.20;22.50;;;;;;;10.03;69.78;99968.42;236580;1194;138995;-60
2021/10/19 02:17:17;;;;;;;35.40;22.80;;;;;;;10.02;69.82;99963.73;236659;1193;138623;-62
2021/10/19 02:22:20;;;;;;;38.50;23.20;;;;;;;9.96;69.87;99963.06;236708;1193;138578;-60
2021/10/19 02:27:23;;;;;;;39.20;21.70;;;;;;;9.91;69.70;99957.48;236697;1193;138839;-60
2021/10/19 02:32:26;;;;;;;34.00;21.40;;;;;;;9.90;69.76;99951.83;236238;1193;140030;-63
2021/10/19 02:37:29;;;;;;;37.10;20.50;;;;;;;9.93;70.07;99963.02;236649;1193;138526;-60
2021/10/19 02:42:33;;;;;;;34.60;19.30;;;;;;;9.96;70.01;99965.05;236694;1193;138586;-63
2021/10/19 02:47:36;;;;;;;33.70;20.20;;;;;;;9.98;70.00;99965.50;236672;1193;138916;-61
2021/10/19 02:52:40;;;;;;;30.60;19.60;;;;;;;10.00;70.13;99964.54;236717;1193;138212;-62
2021/10/19 02:57:44;;;;;;;33.40;19.30;;;;;;;9.99;70.04;99967.73;236749;1193;138333;-63
2021/10/19 03:02:48;;;;;;;30.80;18.20;;;;;;;10.00;69.76;99972.83;236386;1193;139847;-62
2021/10/19 03:07:51;;;;;;;31.90;19.20;;;;;;;10.00;69.84;99974.63;236737;1193;139976;-61
2021/10/19 03:12:54;;;;;;;34.10;20.30;;;;;;;9.98;69.89;99977.37;236593;1193;138232;-61
2021/10/19 03:17:57;;;;;;;36.30;21.00;;;;;;;9.95;69.54;99972.53;236578;1187;139360;-61
2021/10/19 03:23:00;;;;;;;34.90;21.20;;;;;;;9.92;69.63;99976.22;236685;1193;137959;-60
2021/10/19 03:28:04;;;;;;;37.50;20.90;;;;;;;9.88;69.80;99968.42;236882;1193;139131;-61
2021/10/19 03:33:07;;;;;;;32.50;20.80;;;;;;;9.87;69.60;99977.69;236634;1193;138752;-60
2021/10/19 03:38:10;;;;;;;37.10;20.10;;;;;;;9.89;69.62;99982.36;236629;1193;138877;-62
2021/10/19 03:43:13;;;;;;;31.00;20.40;;;;;;;9.94;69.75;99978.60;236498;1193;138745;-62
2021/10/19 03:48:16;;;;;;;35.20;20.70;;;;;;;9.95;69.73;99975.36;236362;1193;139678;-60
2021/10/19 03:53:19;;;;;;;37.50;20.10;;;;;;;9.96;69.48;99971.27;236637;1193;138417;-60
2021/10/19 03:58:23;;;;;;;31.20;19.50;;;;;;;9.94;69.48;99965.68;236511;1193;138015;-60
2021/10/19 04:03:26;;;;;;;36.20;20.40;;;;;;;9.88;69.42;99961.49;236868;1192;138490;-64
2021/10/19 04:08:29;;;;;;;32.70;20.10;;;;;;;9.79;69.38;99965.26;236681;1193;138663;-62
2021/10/19 04:13:33;;;;;;;32.50;19.30;;;;;;;9.73;69.27;99960.58;236388;1194;138719;-62
2021/10/19 04:18:36;;;;;;;90.00;57.50;;;;;;;9.69;69.25;99957.01;236362;1193;140579;-59
2021/10/19 04:23:39;;;;;;;35.40;20.40;;;;;;;9.70;69.53;99961.02;236302;1193;139436;-60
2021/10/19 04:28:44;;;;;;;33.30;19.80;;;;;;;9.71;69.34;99962.23;236400;1192;138323;-61
2021/10/19 04:33:47;;;;;;;41.70;23.20;;;;;;;9.65;69.33;99970.84;236647;1194;138693;-61
2021/10/19 04:38:50;;;;;;;37.30;20.80;;;;;;;9.66;69.52;99968.48;236607;1193;138434;-61
2021/10/19 04:43:53;;;;;;;33.40;19.50;;;;;;;9.72;69.88;99962.91;236546;1193;138552;-60
2021/10/19 04:48:56;;;;;;;35.30;19.90;;;;;;;9.62;69.07;99961.05;236713;1193;139027;-61
2021/10/19 04:53:59;;;;;;;31.00;18.20;;;;;;;9.46;68.98;99962.80;236493;1193;138997;-59
2021/10/19 04:59:02;;;;;;;41.90;18.90;;;;;;;9.36;69.19;99961.81;236595;1193;139503;-59
2021/10/19 05:04:05;;;;;;;39.60;20.70;;;;;;;9.31;69.01;99965.90;236628;1193;139313;-60
2021/10/19 05:09:08;;;;;;;35.30;20.60;;;;;;;9.25;69.12;99966.86;236525;1193;138642;-59
2021/10/19 05:14:11;;;;;;;506.80;301.60;;;;;;;9.19;69.33;99967.27;236576;1193;140499;-58
2021/10/19 05:19:15;;;;;;;57.30;31.80;;;;;;;9.22;69.71;99964.17;236334;1193;140981;-58
2021/10/19 05:24:18;;;;;;;40.20;22.30;;;;;;;9.21;69.39;99969.88;236550;1193;138382;-59
2021/10/19 05:29:21;;;;;;;36.10;20.90;;;;;;;9.15;69.28;99976.14;236611;1193;138723;-60
2021/10/19 05:34:25;;;;;;;31.90;19.80;;;;;;;9.07;69.17;99983.20;236379;1193;138636;-57
2021/10/19 05:39:28;;;;;;;40.70;20.80;;;;;;;9.08;69.66;99986.85;236707;1193;138698;-59
2021/10/19 05:44:31;;;;;;;37.00;19.70;;;;;;;9.13;69.47;99992.68;236721;1193;139464;-58
2021/10/19 05:49:34;;;;;;;44.00;21.60;;;;;;;9.09;69.22;99995.65;236590;1193;139307;-58
2021/10/19 05:54:37;;;;;;;39.00;21.70;;;;;;;9.06;69.37;100002.73;236250;1195;138748;-58
2021/10/19 05:59:40;;;;;;;45.10;22.00;;;;;;;9.01;69.30;100006.80;236590;1193;139138;-59
2021/10/19 06:04:43;;;;;;;44.00;21.70;;;;;;;8.99;69.40;100009.89;236636;1193;139404;-58
2021/10/19 06:09:46;;;;;;;40.10;21.50;;;;;;;9.00;69.68;100017.09;236786;1193;138287;-57
2021/10/19 06:14:49;;;;;;;37.30;21.00;;;;;;;8.99;69.66;100019.80;236557;1186;138771;-59
2021/10/19 06:19:52;;;;;;;33.80;19.90;;;;;;;9.01;69.90;100028.37;236518;1194;139473;-59
2021/10/19 06:24:55;;;;;;;41.30;21.30;;;;;;;9.08;69.74;100033.40;236650;1193;138688;-59
2021/10/19 06:30:00;;;;;;;37.30;20.40;;;;;;;9.15;70.16;100035.25;236655;1193;138373;-60
2021/10/19 06:35:04;;;;;;;37.10;21.20;;;;;;;9.22;70.56;100026.99;236613;1192;138896;-60
2021/10/19 06:40:07;;;;;;;35.70;20.80;;;;;;;9.30;70.15;100022.10;236643;1194;138577;-58
2021/10/19 06:45:11;;;;;;;42.50;22.00;;;;;;;9.36;70.35;100017.39;236434;1193;138661;-59
2021/10/19 06:50:15;;;;;;;35.90;20.40;;;;;;;9.43;70.53;100020.48;236660;1193;139285;-57
2021/10/19 06:55:22;;;;;;;33.10;19.10;;;;;;;9.54;70.84;100011.34;236501;1193;139544;-58
2021/10/19 07:00:25;;;;;;;38.90;20.20;;;;;;;9.69;70.73;100007.34;236151;1195;139377;-56
2021/10/19 07:05:28;;;;;;;29.00;15.20;;;;;;;9.85;71.06;100010.04;236179;1194;138987;-60
2021/10/19 07:10:31;;;;;;;32.00;17.10;;;;;;;10.02;70.82;100006.25;235863;1195;139141;-59
2021/10/19 07:15:35;;;;;;;26.10;13.90;;;;;;;10.19;70.82;100011.00;236516;1194;138790;-59
2021/10/19 07:20:38;;;;;;;26.90;14.10;;;;;;;10.32;70.66;100004.42;236538;1194;138381;-59
2021/10/19 07:25:42;;;;;;;27.50;14.50;;;;;;;10.42;70.43;99998.99;236502;1194;139337;-58
2021/10/19 07:30:45;;;;;;;27.30;14.80;;;;;;;10.57;70.54;99993.16;235606;1195;139794;-59
2021/10/19 07:35:51;;;;;;;27.60;15.90;;;;;;;10.66;70.19;99994.85;236107;1195;139955;-62
2021/10/19 07:40:54;;;;;;;29.40;16.50;;;;;;;10.75;69.83;99994.09;236341;1194;139307;-59
2021/10/19 07:45:57;;;;;;;33.80;17.20;;;;;;;10.90;70.13;99990.52;236545;1195;139153;-59
2021/10/19 07:51:00;;;;;;;29.50;14.70;;;;;;;11.03;70.01;99987.95;236371;1194;139752;-62
2021/10/19 07:56:03;;;;;;;36.10;21.90;;;;;;;11.11;69.79;99983.13;236271;1193;138778;-58
2021/10/19 08:01:07;;;;;;;17.60;9.40;;;;;;;11.30;69.85;99979.70;236397;1194;139129;-59
2021/10/19 08:06:10;;;;;;;13.50;8.20;;;;;;;11.44;69.62;99982.19;236576;1193;138797;-59
2021/10/19 08:11:13;;;;;;;14.50;8.20;;;;;;;11.56;69.25;99980.51;236524;1193;139311;-66
2021/10/19 08:16:17;;;;;;;13.60;8.20;;;;;;;11.63;68.56;99980.51;236410;1195;139153;-61
2021/10/19 08:21:21;;;;;;;12.60;8.00;;;;;;;11.68;68.65;99977.77;236554;1195;138069;-59
2021/10/19 08:26:29;;;;;;;11.10;7.10;;;;;;;11.79;68.14;99983.05;236702;1192;138135;-62
2021/10/19 08:31:32;;;;;;;13.80;7.00;;;;;;;11.90;68.31;99981.28;236586;1193;138982;-62
2021/10/19 08:36:35;;;;;;;10.50;7.00;;;;;;;12.06;68.07;99973.50;235809;1193;139543;-62
2021/10/19 08:41:38;;;;;;;12.90;7.30;;;;;;;12.19;67.73;99972.77;236424;1195;138580;-62
2021/10/19 08:46:41;;;;;;;10.70;6.40;;;;;;;12.32;67.78;99981.71;236039;1193;139656;-63
2021/10/19 08:51:44;;;;;;;15.40;6.80;;;;;;;12.42;67.27;99982.60;236580;1193;139527;-63
2021/10/19 08:56:47;;;;;;;11.30;7.50;;;;;;;12.52;67.50;99979.70;236546;1193;139000;-63
2021/10/19 09:01:56;;;;;;;9.90;6.40;;;;;;;12.67;67.19;99976.95;236646;1193;138720;-63
2021/10/19 09:07:00;;;;;;;11.50;5.50;;;;;;;12.80;67.03;99973.75;236551;1194;138562;-64
2021/10/19 09:12:04;;;;;;;11.50;5.30;;;;;;;12.93;66.78;99978.14;236519;1193;138206;-63
2021/10/19 09:17:08;;;;;;;8.70;5.00;;;;;;;13.09;66.54;99974.54;235984;1193;139850;-63
2021/10/19 09:22:12;;;;;;;9.30;5.20;;;;;;;13.25;66.36;99976.49;236359;1193;139436;-62
2021/10/19 09:27:16;;;;;;;25.80;14.70;;;;;;;13.45;66.14;99974.48;236496;1193;138611;-62
2021/10/19 09:32:19;;;;;;;16.70;10.60;;;;;;;13.64;66.02;99974.60;236534;1194;138485;-63
2021/10/19 09:37:23;;;;;;;12.60;5.30;;;;;;;13.78;65.85;99970.20;236348;1193;138682;-64
2021/10/19 09:42:28;;;;;;;8.90;5.20;;;;;;;13.87;65.31;99971.21;236550;1193;138471;-66
2021/10/19 09:47:37;;;;;;;10.40;5.00;;;;;;;14.00;65.44;99960.42;236133;1193;139898;-62
2021/10/19 09:52:43;;;;;;;8.20;4.70;;;;;;;14.11;64.98;99949.94;236432;1194;138555;-64
2021/10/19 09:57:49;;;;;;;5.70;3.80;;;;;;;14.23;64.61;99954.92;236578;1193;139720;-64
2021/10/19 10:02:59;;;;;;;6.70;3.60;;;;;;;14.31;64.01;99953.35;236590;1193;139034;-63
2021/10/19 10:08:16;;;;;;;5.20;3.30;;;;;;;14.35;63.55;99944.56;236457;1193;138541;-67
2021/10/19 10:13:20;;;;;;;4.90;3.30;;;;;;;14.43;63.58;99936.52;236377;1193;138539;-64
2021/10/19 10:18:33;;;;;;;6.40;2.80;;;;;;;14.55;63.59;99925.07;236117;1193;138433;-63
2021/10/19 10:23:36;;;;;;;6.50;3.00;;;;;;;14.69;63.37;99920.23;236603;1193;138214;-64
2021/10/19 10:28:39;;;;;;;3.50;2.60;;;;;;;14.83;63.11;99910.76;236474;1193;138228;-64
2021/10/19 10:33:44;;;;;;;10.30;5.50;;;;;;;14.96;62.96;99897.54;236555;1193;138105;-64
2021/10/19 10:39:00;;;;;;;6.20;3.40;;;;;;;15.11;62.58;99893.02;236638;1187;138504;-65
2021/10/19 10:44:03;;;;;;;5.30;3.30;;;;;;;15.14;61.97;99886.71;236439;1194;138472;-66
2021/10/19 10:49:11;;;;;;;5.00;3.40;;;;;;;15.18;61.87;99882.52;236066;1193;139290;-66
2021/10/19 10:54:16;;;;;;;6.10;3.40;;;;;;;15.22;61.39;99886.73;236514;1193;138425;-67
2021/10/19 10:59:28;;;;;;;5.00;3.20;;;;;;;15.22;61.38;99886.03;236229;1195;138364;-67
2021/10/19 11:04:31;;;;;;;4.80;2.90;;;;;;;15.23;61.25;99878.27;236829;1193;138595;-66
2021/10/19 11:09:34;;;;;;;4.60;3.00;;;;;;;15.29;60.95;99868.02;236664;1193;138163;-63
2021/10/19 11:14:38;;;;;;;5.40;3.00;;;;;;;15.35;60.76;99851.31;237157;1193;138268;-65
2021/10/19 11:19:41;;;;;;;5.60;3.00;;;;;;;15.41;60.42;99841.41;236541;1194;139671;-67
2021/10/19 11:24:44;;;;;;;5.00;3.00;;;;;;;15.49;60.50;99835.33;236634;1193;137902;-61
2021/10/19 11:29:47;;;;;;;6.20;3.50;;;;;;;15.60;60.47;99822.90;236231;1193;138200;-65
2021/10/19 11:34:54;;;;;;;546.50;434.70;;;;;;;15.69;60.31;99816.60;236568;1193;138360;-63
2021/10/19 11:40:12;;;;;;;16.20;11.70;;;;;;;15.89;60.40;99812.91;236229;1187;139080;-62
2021/10/19 11:45:23;;;;;;;9.40;5.10;;;;;;;16.05;60.18;99809.73;236488;1193;139121;-64
2021/10/19 11:50:28;;;;;;;;;;;;;;;16.24;59.87;99802.66;236466;1193;137997;-63
2021/10/19 11:55:34;;;;;;;8.30;3.70;;;;;;;16.41;59.80;99791.02;236516;1193;124778;-62
2021/10/19 12:00:38;;;;;;;5.90;2.70;;;;;;;16.51;59.50;99785.06;236598;1193;138936;-62
2021/10/19 12:05:43;;;;;;;85.60;53.70;;;;;;;16.50;58.76;99781.15;236496;1193;138257;-58
2021/10/19 12:10:48;;;;;;;10.60;5.30;;;;;;;16.46;58.45;99776.98;236104;1193;138694;-64
2021/10/19 12:15:55;;;;;;;6.20;2.90;;;;;;;16.44;58.40;99767.84;236493;1193;140630;-58
2021/10/19 12:21:02;;;;;;;4.90;2.90;;;;;;;16.42;58.32;99759.40;236473;1193;139332;-64
2021/10/19 12:26:09;;;;;;;12.80;7.10;;;;;;;16.39;58.17;99754.41;236445;1193;138536;-59
2021/10/19 12:31:13;;;;;;;6.90;3.60;;;;;;;16.41;58.13;99747.45;236407;1193;138938;-59
2021/10/19 12:36:22;;;;;;;6.80;3.50;;;;;;;16.37;57.84;99725.57;236458;1193;138051;-62
2021/10/19 12:41:27;;;;;;;5.60;3.40;;;;;;;16.34;57.84;99726.48;236493;1193;141637;-60
2021/10/19 12:46:31;;;;;;;5.70;3.10;;;;;;;16.37;57.94;99722.72;236000;1193;138437;-61
2021/10/19 12:51:36;;;;;;;211.50;132.40;;;;;;;16.43;58.19;99717.09;236420;1193;138309;-59
2021/10/19 12:56:43;;;;;;;20.50;8.90;;;;;;;16.60;58.44;99709.13;236120;1193;138725;-59
2021/10/19 13:01:46;;;;;;;10.90;4.00;;;;;;;16.77;58.20;99705.31;236330;1195;139238;-66
2021/10/19 13:06:50;;;;;;;4.20;2.90;;;;;;;16.93;57.95;99688.86;236272;1195;138619;-69
2021/10/19 13:11:53;;;;;;;10.30;2.90;;;;;;;17.02;57.49;99691.94;236474;1194;139160;-61
2021/10/19 13:16:58;;;;;;;4.40;2.60;;;;;;;17.06;57.57;99690.89;236497;1195;138887;-63
2021/10/19 13:22:02;;;;;;;5.70;2.30;;;;;;;17.08;57.29;99684.50;236517;1193;138242;-62
2021/10/19 13:27:05;;;;;;;12.10;4.00;;;;;;;17.08;57.17;99679.80;236552;1193;138561;-63
2021/10/19 13:32:08;;;;;;;3.60;2.10;;;;;;;17.24;58.21;99679.64;236489;1193;139143;-62
2021/10/19 13:37:11;;;;;;;329.30;163.50;;;;;;;17.45;58.25;99667.73;236499;1193;138465;-63
2021/10/19 13:42:14;;;;;;;50.90;26.90;;;;;;;17.66;57.59;99665.69;236521;1193;139491;-62
2021/10/19 13:47:17;;;;;;;1209.40;116.40;;;;;;;17.66;56.20;99671.38;236447;1187;138551;-61
2021/10/19 13:52:20;;;;;;;245.80;18.80;;;;;;;17.61;55.92;99661.95;236337;1187;139395;-61
2021/10/19 13:57:23;;;;;;;5.10;1.60;;;;;;;17.58;55.54;99667.72;236529;1193;138994;-60
2021/10/19 14:02:26;;;;;;;1999.90;353.20;;;;;;;17.48;54.94;99671.92;236534;1193;139154;-61
2021/10/19 14:07:30;;;;;;;15.50;6.70;;;;;;;17.47;54.87;99676.39;236494;1193;138385;-61
2021/10/19 14:12:34;;;;;;;4.90;2.90;;;;;;;17.39;54.38;99675.58;235982;1193;138970;-63
2021/10/19 14:17:37;;;;;;;5.20;2.10;;;;;;;17.27;54.21;99675.63;236460;1193;138606;-61
2021/10/19 14:22:41;;;;;;;57.40;38.00;;;;;;;17.14;53.84;99667.15;236247;1193;138213;-62
2021/10/19 14:27:44;;;;;;;6.70;3.20;;;;;;;17.04;53.78;99655.36;236533;1194;138316;-61
2021/10/19 14:32:47;;;;;;;9.70;2.50;;;;;;;16.94;53.48;99649.51;236515;1193;138344;-63
2021/10/19 14:37:50;;;;;;;8.20;2.20;;;;;;;16.88;53.58;99635.73;236160;1193;138177;-61
2021/10/19 14:42:53;;;;;;;9.40;4.50;;;;;;;16.83;53.56;99621.56;236452;1193;139267;-59
2021/10/19 14:47:57;;;;;;;9.90;3.20;;;;;;;16.82;53.73;99620.73;236517;1193;138718;-62
2021/10/19 14:53:04;;;;;;;6.30;3.10;;;;;;;16.88;53.60;99625.48;236364;1193;138942;-62
2021/10/19 14:58:07;;;;;;;8.20;2.80;;;;;;;16.82;53.32;99624.83;236640;1193;138374;-67
2021/10/19 15:03:10;;;;;;;6.30;2.70;;;;;;;16.77;53.58;99620.55;236295;1193;138618;-61
2021/10/19 15:08:13;;;;;;;21.50;13.70;;;;;;;16.80;53.59;99623.92;236408;1193;140778;-65
2021/10/19 15:13:17;;;;;;;8.10;3.00;;;;;;;16.78;53.58;99628.72;236320;1195;138927;-61
2021/10/19 15:18:20;;;;;;;5.90;3.20;;;;;;;16.72;53.17;99628.98;235884;1195;138106;-60
2021/10/19 15:23:24;;;;;;;7.00;2.70;;;;;;;16.65;53.13;99635.96;236463;1193;138294;-63
2021/10/19 15:28:28;;;;;;;6.60;3.00;;;;;;;16.59;53.03;99637.36;236553;1193;138970;-61
2021/10/19 15:33:31;;;;;;;6.80;3.30;;;;;;;16.53;53.00;99644.95;236494;1193;138710;-60
2021/10/19 15:38:35;;;;;;;8.90;3.70;;;;;;;16.48;52.91;99651.45;236503;1193;138155;-60
2021/10/19 15:43:39;;;;;;;6.70;3.20;;;;;;;16.42;52.71;99655.49;236479;1193;138387;-60
2021/10/19 15:48:42;;;;;;;5.10;3.10;;;;;;;16.37;52.63;99649.45;236375;1193;138809;-64
2021/10/19 15:53:45;;;;;;;10.10;3.40;;;;;;;16.31;52.67;99638.73;236522;1193;138498;-63
2021/10/19 15:58:48;;;;;;;9.30;3.10;;;;;;;16.24;52.75;99635.02;236208;1194;140351;-60
2021/10/19 16:03:51;;;;;;;8.20;3.30;;;;;;;16.18;52.59;99640.84;236496;1194;138427;-59
2021/10/19 16:08:55;;;;;;;7.30;3.80;;;;;;;16.12;52.67;99644.16;236435;1195;138027;-62
2021/10/19 16:13:58;;;;;;;4.90;2.90;;;;;;;16.03;52.65;99639.08;236456;1194;138834;-60
2021/10/19 16:19:06;;;;;;;5.40;3.20;;;;;;;15.95;52.53;99642.61;236527;1193;138331;-60
2021/10/19 16:24:09;;;;;;;7.60;3.80;;;;;;;15.85;52.74;99641.90;236451;1194;138748;-63
2021/10/19 16:29:12;;;;;;;6.60;3.60;;;;;;;15.77;52.81;99637.25;236454;1193;138446;-60
2021/10/19 16:34:15;;;;;;;193.40;112.00;;;;;;;15.79;54.00;99638.40;236533;1194;138180;-62
2021/10/19 16:39:19;;;;;;;41.20;26.60;;;;;;;16.40;55.03;99630.79;236390;1194;141757;-60
2021/10/19 16:44:21;;;;;;;15.40;8.00;;;;;;;16.32;53.38;99637.16;236455;1194;138543;-59
2021/10/19 16:49:24;;;;;;;9.60;5.10;;;;;;;16.06;52.85;99636.18;236393;1194;139171;-66
2021/10/19 16:54:30;;;;;;;9.30;4.40;;;;;;;15.86;52.89;99638.64;236454;1193;138456;-61
2021/10/19 16:59:33;;;;;;;8.20;4.70;;;;;;;15.67;52.90;99637.88;236544;1193;138897;-62
2021/10/19 17:04:36;;;;;;;8.70;4.40;;;;;;;15.53;52.93;99647.10;236270;1193;140625;-61
2021/10/19 17:09:39;;;;;;;10.40;5.30;;;;;;;15.42;53.10;99649.17;236230;1193;138043;-59
2021/10/19 17:14:42;;;;;;;10.20;5.10;;;;;;;15.33;53.48;99650.33;236319;1194;138655;-60
2021/10/19 17:19:46;;;;;;;13.30;5.50;;;;;;;15.23;53.70;99646.77;236545;1193;138693;-60
2021/10/19 17:24:50;;;;;;;19.80;5.50;;;;;;;15.07;54.13;99641.48;236020;1193;138696;-64
2021/10/19 17:29:53;;;;;;;65.80;43.90;;;;;;;14.87;54.31;99642.81;236558;1193;139394;-61
2021/10/19 17:34:56;;;;;;;25.50;6.80;;;;;;;14.76;54.84;99639.34;236371;1194;138515;-62
2021/10/19 17:39:59;;;;;;;13.90;6.80;;;;;;;14.68;54.95;99626.84;236538;1194;139394;-60
2021/10/19 17:45:09;;;;;;;11.50;6.10;;;;;;;14.65;54.88;99625.82;236567;1193;139522;-61
2021/10/19 17:50:14;;;;;;;14.20;6.90;;;;;;;14.58;54.82;99623.97;236497;1193;139924;-58
2021/10/19 17:55:17;;;;;;;13.70;7.50;;;;;;;14.51;55.07;99622.16;236379;1192;138470;-64
2021/10/19 18:00:20;;;;;;;19.80;8.00;;;;;;;14.43;54.95;99618.19;236491;1193;138775;-58
2021/10/19 18:05:24;;;;;;;16.50;7.40;;;;;;;14.35;55.34;99620.15;236242;1193;139306;-60
2021/10/19 18:10:28;;;;;;;14.60;7.60;;;;;;;14.29;55.34;99621.44;236581;1194;138969;-67
2021/10/19 18:15:31;;;;;;;107.00;69.40;;;;;;;14.21;55.45;99623.09;236499;1193;138622;-62
2021/10/19 18:20:36;;;;;;;22.10;13.30;;;;;;;14.21;55.86;99623.44;236564;1193;139286;-63
2021/10/19 18:25:39;;;;;;;17.40;10.00;;;;;;;14.15;55.60;99624.73;236513;1194;138780;-59
2021/10/19 18:30:46;;;;;;;14.30;9.10;;;;;;;14.08;55.75;99625.61;236485;1179;138645;-59
2021/10/19 18:35:50;;;;;;;15.00;9.10;;;;;;;13.97;55.77;99627.55;236542;1195;139199;-63
2021/10/19 18:40:53;;;;;;;18.30;9.70;;;;;;;13.88;55.96;99629.19;236595;1187;138385;-59
2021/10/19 18:45:56;;;;;;;19.30;11.30;;;;;;;13.79;56.07;99626.25;236403;1193;138706;-62
2021/10/19 18:50:59;;;;;;;19.40;10.90;;;;;;;13.78;56.24;99624.18;235996;1193;138920;-62
2021/10/19 18:56:03;;;;;;;22.90;11.40;;;;;;;13.72;56.40;99618.34;236409;1193;138404;-60
2021/10/19 19:01:06;;;;;;;22.40;12.10;;;;;;;13.63;56.24;99615.69;236491;1193;139098;-60
2021/10/19 19:06:10;;;;;;;18.50;11.90;;;;;;;13.55;56.53;99611.05;236461;1193;140100;-58
2021/10/19 19:11:14;;;;;;;22.60;12.30;;;;;;;13.46;56.69;99609.50;236261;1193;140574;-62
2021/10/19 19:16:17;;;;;;;26.50;12.90;;;;;;;13.38;56.67;99605.73;236511;1193;139311;-62
2021/10/19 19:21:21;;;;;;;22.80;12.30;;;;;;;13.33;56.84;99603.01;236475;1187;138846;-59
2021/10/19 19:26:25;;;;;;;22.30;13.30;;;;;;;13.31;57.01;99597.65;236456;1193;138715;-61
2021/10/19 19:31:31;;;;;;;24.10;13.50;;;;;;;13.22;57.12;99602.27;236260;1193;139648;-57
2021/10/19 19:36:38;;;;;;;20.40;13.20;;;;;;;13.13;56.93;99605.53;236140;1193;138604;-61
2021/10/19 19:41:41;;;;;;;24.30;13.10;;;;;;;13.03;57.17;99606.50;236234;1193;138981;-58
2021/10/19 19:46:44;;;;;;;25.70;14.40;;;;;;;12.96;57.34;99600.33;235779;1195;138907;-57
2021/10/19 19:51:47;;;;;;;24.40;14.60;;;;;;;12.89;57.40;99607.05;236522;1195;138579;-57
2021/10/19 19:56:50;;;;;;;30.40;15.60;;;;;;;12.81;57.63;99602.02;236485;1193;138907;-62
2021/10/19 20:01:53;;;;;;;34.60;15.10;;;;;;;12.73;57.67;99599.10;236336;1193;139782;-59
2021/10/19 20:06:58;;;;;;;24.10;14.50;;;;;;;12.70;57.91;99601.85;236223;1194;138640;-59
2021/10/19 20:12:06;;;;;;;24.20;14.80;;;;;;;12.66;57.84;99603.14;236346;1193;139389;-58
2021/10/19 20:17:10;;;;;;;25.60;14.50;;;;;;;12.65;58.01;99610.31;236278;1193;138026;-57
2021/10/19 20:22:14;;;;;;;25.20;15.10;;;;;;;12.64;58.02;99606.48;236516;1193;139491;-60
2021/10/19 20:27:18;;;;;;;28.60;14.20;;;;;;;12.61;57.90;99599.69;236314;1193;139402;-63
2021/10/19 20:32:25;;;;;;;27.40;15.40;;;;;;;12.58;57.82;99597.20;236492;1193;138748;-60
2021/10/19 20:37:29;;;;;;;23.40;13.50;;;;;;;12.54;57.89;99589.95;236569;1193;138527;-59
2021/10/19 20:42:32;;;;;;;21.90;13.30;;;;;;;12.49;57.80;99586.19;236467;1193;138926;-59
2021/10/19 20:47:36;;;;;;;24.30;12.90;;;;;;;12.44;57.94;99581.70;236359;1194;138527;-56
2021/10/19 20:52:39;;;;;;;25.10;13.50;;;;;;;12.38;57.96;99574.90;236597;1193;138634;-59
2021/10/19 20:57:42;;;;;;;25.30;13.00;;;;;;;12.35;57.98;99570.64;236767;1193;139092;-61
2021/10/19 21:02:46;;;;;;;27.20;14.00;;;;;;;12.35;58.09;99564.43;236624;1193;139435;-63
2021/10/19 21:07:49;;;;;;;22.20;12.50;;;;;;;12.34;58.00;99563.27;236680;1192;138684;-60
2021/10/19 21:12:58;;;;;;;20.70;12.60;;;;;;;12.30;57.94;99557.66;236610;1193;138592;-62
2021/10/19 21:18:02;;;;;;;23.60;12.90;;;;;;;12.27;58.09;99550.52;236442;1193;138953;-62
2021/10/19 21:23:05;;;;;;;23.30;12.70;;;;;;;12.23;58.37;99550.60;236478;1193;139012;-62
2021/10/19 21:28:14;;;;;;;22.40;13.00;;;;;;;12.19;58.24;99551.92;236651;1193;137964;-65
2021/10/19 21:33:18;;;;;;;21.40;12.50;;;;;;;12.12;58.38;99545.19;236520;1193;138769;-60
2021/10/19 21:38:22;;;;;;;23.70;13.30;;;;;;;12.09;58.58;99544.86;236455;1186;139207;-69
2021/10/19 21:43:26;;;;;;;25.50;14.60;;;;;;;12.04;58.58;99538.17;236547;1193;139601;-63
2021/10/19 21:48:30;;;;;;;25.10;13.30;;;;;;;12.00;58.70;99538.45;236421;1193;138784;-66
2021/10/19 21:53:33;;;;;;;22.60;13.50;;;;;;;11.94;59.06;99535.82;236130;1193;139825;-62
2021/10/19 21:58:36;;;;;;;23.20;12.70;;;;;;;11.85;59.14;99535.56;236509;1193;139181;-63
2021/10/19 22:03:39;;;;;;;24.50;12.90;;;;;;;11.77;59.56;99532.31;236249;1193;138513;-61
2021/10/19 22:08:43;;;;;;;22.10;12.50;;;;;;;11.72;59.82;99529.58;236458;1193;139148;-60
2021/10/19 22:13:46;;;;;;;22.00;13.00;;;;;;;11.72;59.89;99525.34;236317;1193;139112;-62
2021/10/19 22:18:49;;;;;;;28.70;14.10;;;;;;;11.70;60.08;99516.76;236557;1193;138263;-61
2021/10/19 22:29:06;;;;;;;23.30;13.00;;;;;;;11.59;60.35;99502.97;236468;1193;138210;-65
2021/10/19 22:34:10;;;;;;;28.70;13.50;;;;;;;11.50;60.38;99495.52;236618;1193;139551;-60
2021/10/19 22:39:13;;;;;;;28.50;13.70;;;;;;;11.40;60.55;99494.48;236692;1178;138475;-60
2021/10/19 22:44:16;;;;;;;25.00;12.30;;;;;;;11.31;60.70;99491.30;236401;1193;139366;-60
2021/10/19 22:49:19;;;;;;;27.90;13.90;;;;;;;11.22;60.91;99488.80;236446;1193;138851;-67
2021/10/19 22:54:22;;;;;;;23.70;12.40;;;;;;;11.12;61.17;99479.38;236399;1193;138936;-64
2021/10/19 22:59:25;;;;;;;23.90;12.00;;;;;;;11.05;61.34;99476.25;236586;1193;138927;-62